Time;durP1;ratioP1;P1;durP2;ratioP2;P2;SDS_P1;SDS_P2;PMS_P1;PMS_P2;Temp;Humidity;BMP_temperature;BMP_pressure;BME280_temperature;BME280_humidity;BME280_pressure;Samples;Min_cycle;Max_cycle;Signal;HPM_P1;HPM_P2
2022/05/21 00:01:49;;;;;;;43.53;22.75;;;;;;;17.21;65.06;101873.69;4994220;28;20422;-65
2022/05/21 00:04:15;;;;;;;35.38;20.83;;;;;;;16.36;66.78;101884.41;4993170;28;20054;-68
2022/05/21 00:06:41;;;;;;;36.72;23.10;;;;;;;17.39;64.06;101873.47;4991020;28;20118;-66
2022/05/21 00:09:07;;;;;;;46.33;24.40;;;;;;;17.54;63.37;101873.75;4992554;28;20041;-66
2022/05/21 00:11:32;;;;;;;35.53;23.85;;;;;;;17.12;64.24;101870.53;4993775;28;20042;-67
2022/05/21 00:13:57;;;;;;;36.20;22.75;;;;;;;17.21;64.40;101877.25;4993182;28;20041;-66
2022/05/21 00:16:23;;;;;;;33.15;22.75;;;;;;;17.99;61.88;101874.50;4993953;28;20034;-67
2022/05/21 00:18:49;;;;;;;39.90;24.00;;;;;;;17.38;63.98;101861.78;4983614;28;20030;-65
2022/05/21 00:21:14;;;;;;;39.53;24.40;;;;;;;17.27;63.75;101870.84;4984645;28;20075;-65
2022/05/21 00:23:41;;;;;;;43.88;23.67;;;;;;;17.36;63.92;101869.34;4989937;28;20471;-67
2022/05/21 00:26:10;;;;;;;34.65;22.15;;;;;;;16.64;66.13;101870.13;4993427;28;20034;-66
2022/05/21 00:28:37;;;;;;;40.00;22.42;;;;;;;17.59;62.98;101868.44;4993566;28;20045;-66
2022/05/21 00:31:04;;;;;;;36.53;23.05;;;;;;;17.54;63.29;101866.44;4991083;28;20078;-66
2022/05/21 00:33:30;;;;;;;38.78;23.20;;;;;;;17.33;64.32;101860.88;4993190;28;20552;-66
2022/05/21 00:35:56;;;;;;;42.17;23.85;;;;;;;17.75;62.92;101853.19;4993016;28;20084;-66
2022/05/21 00:38:22;;;;;;;39.17;23.25;;;;;;;17.52;63.24;101855.00;4979137;28;20038;-66
2022/05/21 00:40:49;;;;;;;34.58;22.27;;;;;;;17.65;63.33;101848.38;4974304;28;20043;-66
2022/05/21 00:43:38;;;;;;;46.42;24.40;;;;;;;17.54;63.21;101857.47;4972637;28;20061;-66
2022/05/21 00:46:05;;;;;;;32.88;23.67;;;;;;;17.82;62.45;101853.84;4973952;28;20104;-66
2022/05/21 00:48:31;;;;;;;37.13;24.30;;;;;;;17.36;64.15;101857.66;4973355;28;20134;-66
2022/05/21 00:50:57;;;;;;;38.60;24.10;;;;;;;17.59;63.22;101857.56;4973178;28;20110;-66
2022/05/21 00:53:24;;;;;;;38.28;23.90;;;;;;;16.94;65.29;101859.88;4973209;28;20039;-66
2022/05/21 00:55:51;;;;;;;42.53;25.48;;;;;;;17.51;64.02;101855.25;4973433;28;20490;-66
2022/05/21 01:01:06;;;;;;;41.25;25.27;;;;;;;16.94;65.31;101875.34;4992431;28;20048;-64
2022/05/21 01:03:32;;;;;;;43.90;26.52;;;;;;;17.55;64.01;101864.56;4992001;28;20126;-67
2022/05/21 01:06:00;;;;;;;41.33;26.83;;;;;;;17.37;63.46;101864.75;4992104;28;20409;-66
2022/05/21 01:08:25;;;;;;;35.47;28.23;;;;;;;17.51;64.03;101866.13;4992245;28;20491;-66
2022/05/21 01:10:54;;;;;;;34.78;27.77;;;;;;;17.55;63.70;101868.06;4992679;28;20122;-66
2022/05/21 01:13:24;;;;;;;41.97;28.23;;;;;;;17.75;62.86;101875.75;4992851;28;20065;-65
2022/05/21 01:15:53;;;;;;;43.05;27.10;;;;;;;17.58;63.43;101864.06;4992029;28;20081;-65
2022/05/21 01:18:19;;;;;;;45.70;28.38;;;;;;;17.71;63.11;101865.63;4992626;28;20038;-65
2022/05/21 01:20:48;;;;;;;44.03;27.40;;;;;;;17.47;63.37;101867.66;4992764;28;20038;-66
2022/05/21 01:23:16;;;;;;;47.30;26.65;;;;;;;17.41;64.06;101860.47;4992485;28;20034;-65
2022/05/21 01:25:43;;;;;;;40.47;27.65;;;;;;;17.94;62.47;101855.41;4993269;28;20022;-67
2022/05/21 01:28:13;;;;;;;39.42;27.63;;;;;;;17.92;62.43;101856.72;4992597;28;20052;-67
2022/05/21 01:30:42;;;;;;;39.60;27.63;;;;;;;17.48;63.30;101856.56;4992604;28;20117;-66
2022/05/21 01:33:11;;;;;;;39.80;26.92;;;;;;;17.10;65.25;101859.09;4992642;28;20058;-67
2022/05/21 01:35:39;;;;;;;32.55;22.95;;;;;;;16.79;65.98;101859.56;4992492;28;20034;-66
2022/05/21 01:38:06;;;;;;;39.70;28.83;;;;;;;17.74;63.28;101868.69;4992297;28;20100;-66
2022/05/21 01:40:32;;;;;;;41.47;26.13;;;;;;;16.99;65.06;101861.84;4992797;28;20062;-65
2022/05/21 01:45:42;;;;;;;40.15;25.35;;;;;;;17.03;65.69;101863.84;4992423;28;20041;-65
2022/05/21 01:48:08;;;;;;;39.22;26.27;;;;;;;17.16;65.76;101854.59;4992524;28;20030;-66
2022/05/21 01:50:34;;;;;;;40.30;25.67;;;;;;;17.29;64.48;101857.81;4992254;28;20049;-66
2022/05/21 01:53:00;;;;;;;45.55;27.58;;;;;;;17.62;63.43;101843.47;4992416;28;20029;-67
2022/05/21 01:55:25;;;;;;;43.67;25.00;;;;;;;17.58;64.04;101847.75;4992710;28;20043;-67
2022/05/21 01:57:51;;;;;;;36.70;23.70;;;;;;;17.28;65.16;101848.00;4992357;28;20057;-66
2022/05/21 02:00:17;;;;;;;33.95;24.42;;;;;;;17.50;64.00;101850.88;4991853;28;20038;-66
2022/05/21 02:02:43;;;;;;;29.95;23.10;;;;;;;17.26;64.90;101843.88;4992325;28;20106;-66
2022/05/21 02:05:09;;;;;;;32.70;24.23;;;;;;;17.82;62.88;101846.50;4992212;28;20042;-66
2022/05/21 02:07:35;;;;;;;37.90;23.38;;;;;;;17.64;64.22;101844.03;4992561;28;20041;-66
2022/05/21 02:10:03;;;;;;;30.77;21.00;;;;;;;17.20;65.29;101845.69;4992347;28;20387;-66
2022/05/21 02:12:28;;;;;;;33.72;22.63;;;;;;;17.59;64.58;101849.41;4992200;28;20038;-66
2022/05/21 02:14:55;;;;;;;39.30;23.58;;;;;;;17.98;62.86;101848.41;4990924;28;20479;-66
2022/05/21 02:17:21;;;;;;;31.83;19.33;;;;;;;17.23;65.10;101845.22;4992127;28;20061;-66
2022/05/21 02:19:47;;;;;;;36.60;22.83;;;;;;;18.12;62.68;101843.41;4992532;28;20088;-65
2022/05/21 02:22:12;;;;;;;32.65;20.98;;;;;;;17.69;64.49;101849.53;4991752;28;20038;-67
2022/05/21 02:24:37;;;;;;;39.58;21.65;;;;;;;17.49;64.75;101844.59;4992229;28;20039;-67
2022/05/21 02:27:03;;;;;;;32.33;19.50;;;;;;;17.65;64.05;101845.66;4992553;28;20077;-66
2022/05/21 02:29:29;;;;;;;31.75;20.92;;;;;;;18.13;62.67;101847.78;4994723;28;20038;-66
2022/05/21 02:31:54;;;;;;;34.25;21.00;;;;;;;18.27;62.21;101839.00;4996262;28;20026;-67
2022/05/21 02:34:20;;;;;;;29.15;19.25;;;;;;;17.55;64.21;101846.34;4995154;28;20050;-66
2022/05/21 02:39:29;;;;;;;31.20;19.05;;;;;;;18.11;62.98;101848.03;4995689;28;20057;-66
2022/05/21 02:41:59;;;;;;;31.55;19.13;;;;;;;17.58;64.04;101847.75;4995949;28;20030;-65
2022/05/21 02:44:26;;;;;;;31.80;19.00;;;;;;;17.64;64.25;101838.59;4995665;28;20521;-66
2022/05/21 02:46:52;;;;;;;29.38;16.83;;;;;;;17.71;63.75;101844.69;4996196;28;20109;-67
2022/05/21 02:49:17;;;;;;;29.85;18.50;;;;;;;18.09;63.01;101847.47;4995717;28;20121;-66
2022/05/21 02:51:43;;;;;;;35.22;19.38;;;;;;;18.71;60.50;101855.38;4995547;28;20037;-66
2022/05/21 02:54:10;;;;;;;29.13;16.02;;;;;;;18.20;62.33;101849.22;4995443;28;20513;-66
2022/05/21 02:56:36;;;;;;;26.70;17.60;;;;;;;17.94;63.38;101846.41;4995314;28;20042;-66
2022/05/21 02:59:06;;;;;;;29.08;19.45;;;;;;;18.13;62.53;101843.16;4995327;28;20047;-66
2022/05/21 03:01:33;;;;;;;32.30;16.17;;;;;;;18.46;62.04;101846.88;4996208;28;20086;-67
2022/05/21 03:03:59;;;;;;;29.75;18.30;;;;;;;18.12;62.75;101849.66;4995138;28;20988;-67
2022/05/21 03:06:25;;;;;;;25.08;15.80;;;;;;;17.92;63.54;101854.81;4995108;28;20124;-66
2022/05/21 03:11:34;;;;;;;29.25;16.80;;;;;;;17.83;63.62;101844.59;4995304;28;20037;-65
2022/05/21 03:14:00;;;;;;;27.30;15.30;;;;;;;18.09;62.96;101838.47;4994871;28;20038;-66
2022/05/21 03:16:25;;;;;;;25.63;15.77;;;;;;;17.98;63.33;101837.50;4995577;28;20030;-67
2022/05/21 03:18:50;;;;;;;31.05;16.50;;;;;;;18.66;61.09;101836.25;4994941;28;20046;-66
2022/05/21 03:21:16;;;;;;;29.02;16.83;;;;;;;17.73;64.31;101839.81;4995108;28;20035;-65
2022/05/21 03:23:41;;;;;;;35.85;16.02;;;;;;;18.36;62.11;101851.09;4994820;28;20382;-65
2022/05/21 03:26:07;;;;;;;31.25;16.75;;;;;;;18.57;61.18;101848.69;4995069;28;20031;-65
2022/05/21 03:28:32;;;;;;;28.10;15.15;;;;;;;18.55;61.41;101846.22;4995249;28;20038;-65
2022/05/21 03:30:58;;;;;;;19.02;14.55;;;;;;;18.04;62.63;101857.44;4994815;28;20049;-65
2022/05/21 03:33:23;;;;;;;25.70;15.38;;;;;;;18.14;62.70;101858.41;4994683;28;20445;-65
2022/05/21 03:35:48;;;;;;;20.20;12.05;;;;;;;17.68;64.14;101852.50;4994657;28;20042;-65
2022/05/21 03:38:14;;;;;;;28.65;14.52;;;;;;;18.36;62.25;101848.38;4994396;28;20042;-65
2022/05/21 03:40:40;;;;;;;28.25;14.50;;;;;;;17.85;64.03;101856.88;4994029;28;20050;-67
2022/05/21 03:43:07;;;;;;;29.17;13.32;;;;;;;18.53;61.52;101839.38;4993957;28;20391;-65
2022/05/21 03:45:33;;;;;;;20.67;13.38;;;;;;;18.10;63.14;101856.44;4993897;28;20042;-66
2022/05/21 03:47:58;;;;;;;25.52;11.32;;;;;;;17.80;63.42;101861.41;4993994;28;20098;-68
2022/05/21 03:50:27;;;;;;;25.15;12.52;;;;;;;18.37;62.57;101858.19;4994085;28;20449;-65
2022/05/21 03:52:52;;;;;;;34.38;14.52;;;;;;;18.58;61.81;101856.59;4994048;28;20018;-67
2022/05/21 03:55:18;;;;;;;25.02;13.15;;;;;;;18.38;62.47;101862.56;4994804;28;20023;-66
2022/05/21 03:57:44;;;;;;;23.25;11.55;;;;;;;18.71;60.41;101860.84;4994373;28;20038;-67
2022/05/21 04:00:13;;;;;;;23.45;13.10;;;;;;;19.03;60.81;101862.56;4993913;28;20141;-66
2022/05/21 04:02:38;;;;;;;24.73;12.68;;;;;;;18.66;60.70;101858.03;4978839;28;20026;-66
2022/05/21 04:05:05;;;;;;;24.23;11.50;;;;;;;18.63;61.74;101855.84;4974518;28;20043;-66
2022/05/21 04:07:30;;;;;;;26.65;11.48;;;;;;;18.37;62.32;101854.66;4975046;28;20027;-67
2022/05/21 04:09:56;;;;;;;29.70;11.80;;;;;;;18.35;62.23;101862.25;4974641;28;20038;-66
2022/05/21 04:12:21;;;;;;;20.33;9.05;;;;;;;18.22;63.26;101857.16;4974575;28;20049;-66
2022/05/21 04:14:47;;;;;;;27.73;11.07;;;;;;;18.48;62.37;101861.06;4974394;28;20042;-67
2022/05/21 04:17:13;;;;;;;29.65;10.60;;;;;;;18.63;62.39;101869.44;4992899;28;20494;-66
2022/05/21 04:19:40;;;;;;;29.40;10.52;;;;;;;18.77;61.56;101870.72;4994280;28;20394;-65
2022/05/21 04:22:06;;;;;;;23.33;9.65;;;;;;;18.60;61.75;101873.50;4993518;28;20046;-67
2022/05/21 04:24:31;;;;;;;18.45;9.02;;;;;;;18.59;61.73;101879.19;4993872;28;20451;-66
2022/05/21 04:26:56;;;;;;;21.48;8.88;;;;;;;18.95;61.08;101884.81;4993597;28;20113;-65
2022/05/21 04:29:22;;;;;;;24.27;8.65;;;;;;;18.40;61.77;101886.78;4992253;28;20034;-67
2022/05/21 04:31:47;;;;;;;25.35;7.65;;;;;;;18.94;60.32;101885.91;4994207;28;20441;-66
2022/05/21 04:34:13;;;;;;;16.98;6.32;;;;;;;18.76;61.17;101886.22;4993582;28;20038;-67
2022/05/21 04:36:38;;;;;;;30.33;6.32;;;;;;;18.82;60.17;101884.38;4993514;28;20709;-66
2022/05/21 04:39:05;;;;;;;25.65;5.63;;;;;;;19.49;57.81;101893.03;4992852;28;20096;-67
2022/05/21 04:41:30;;;;;;;22.42;4.88;;;;;;;19.65;56.94;101887.47;4992701;28;20375;-66
2022/05/21 04:43:56;;;;;;;13.27;3.72;;;;;;;18.83;60.02;101894.22;4992684;28;20034;-65
2022/05/21 04:46:26;;;;;;;23.00;5.50;;;;;;;18.52;60.76;101895.69;4992853;28;20030;-66
2022/05/21 04:48:52;;;;;;;29.20;5.10;;;;;;;18.74;59.84;101898.44;4990772;28;20057;-66
2022/05/21 04:51:18;;;;;;;21.40;3.05;;;;;;;19.56;57.79;101904.53;4992469;28;20383;-66
2022/05/21 04:53:43;;;;;;;19.85;4.55;;;;;;;19.18;58.85;101905.50;4992662;28;20041;-65
2022/05/21 04:56:09;;;;;;;22.35;4.07;;;;;;;18.93;59.33;101899.75;4992440;28;20482;-65
2022/05/21 04:58:35;;;;;;;18.58;3.70;;;;;;;19.20;57.80;101900.63;4993016;28;20026;-66
2022/05/21 05:01:04;;;;;;;19.95;3.80;;;;;;;19.81;56.49;101907.50;4991144;28;20541;-66
2022/05/21 05:03:30;;;;;;;11.77;3.22;;;;;;;19.34;56.41;101920.16;4992605;28;20031;-66
2022/05/21 05:05:55;;;;;;;9.70;3.10;;;;;;;19.65;56.72;101911.19;4992363;28;20054;-66
2022/05/21 05:08:21;;;;;;;26.20;4.88;;;;;;;19.38;57.67;101919.38;4992727;28;20042;-67
2022/05/21 05:10:47;;;;;;;17.85;3.72;;;;;;;19.64;56.40;101915.81;4993488;28;20521;-67
2022/05/21 05:13:14;;;;;;;13.30;4.03;;;;;;;18.83;58.23;101921.44;4992897;28;20039;-66
2022/05/21 05:15:41;;;;;;;14.43;3.17;;;;;;;19.12;57.75;101925.59;4992719;28;20042;-65
2022/05/21 05:18:10;;;;;;;30.42;5.10;;;;;;;19.27;58.22;101926.59;4992800;28;20026;-67
2022/05/21 05:20:37;;;;;;;20.58;3.97;;;;;;;19.40;57.20;101925.38;5007328;28;20177;-67
2022/05/21 05:23:03;;;;;;;25.15;4.60;;;;;;;19.48;56.92;101927.66;4992326;28;20035;-67
2022/05/21 05:25:29;;;;;;;20.35;4.22;;;;;;;19.74;56.75;101926.81;4993085;28;20034;-67
2022/05/21 05:27:55;;;;;;;23.90;3.95;;;;;;;19.74;56.46;101943.19;4992450;28;20263;-67
2022/05/21 05:30:21;;;;;;;19.45;4.93;;;;;;;19.22;57.35;101940.16;4992482;28;20494;-67
2022/05/21 05:32:47;;;;;;;19.13;4.13;;;;;;;19.37;57.15;101942.25;4992060;28;20058;-68
2022/05/21 05:35:13;;;;;;;21.40;3.08;;;;;;;19.65;56.14;101936.56;4982654;28;20042;-68
2022/05/21 05:37:39;;;;;;;22.10;4.00;;;;;;;19.53;57.26;101946.81;4982524;28;20470;-67
2022/05/21 05:40:07;;;;;;;18.23;4.85;;;;;;;19.72;55.91;101939.88;4980662;28;20173;-66
2022/05/21 05:42:37;;;;;;;25.25;5.50;;;;;;;20.25;54.96;101936.25;4979575;28;20039;-67
2022/05/21 05:45:04;;;;;;;16.55;4.40;;;;;;;20.38;54.67;101943.16;4982359;28;20038;-66
2022/05/21 05:47:31;;;;;;;17.80;3.33;;;;;;;20.06;55.66;101938.56;4983062;28;20047;-67
2022/05/21 05:49:57;;;;;;;23.65;3.80;;;;;;;20.28;54.68;101943.09;4981738;28;20018;-67
2022/05/21 05:52:23;;;;;;;17.42;4.10;;;;;;;19.65;56.12;101944.75;4981589;28;20085;-65
2022/05/21 05:54:49;;;;;;;28.73;5.68;;;;;;;20.11;55.45;101940.47;4980357;28;20042;-66
2022/05/21 05:57:15;;;;;;;16.45;4.07;;;;;;;20.97;53.27;101950.03;4982103;28;20195;-67
2022/05/21 05:59:50;;;;;;;14.10;3.80;;;;;;;20.15;54.66;101947.88;4980501;28;20050;-67
2022/05/21 06:05:07;;;;;;;22.23;4.70;;;;;;;20.34;54.07;101947.50;4984055;28;20045;-67
2022/05/21 06:07:33;;;;;;;13.60;4.13;;;;;;;20.31;54.29;101954.31;4982334;28;20042;-66
2022/05/21 06:10:03;;;;;;;17.10;4.20;;;;;;;21.03;52.58;101946.25;4976833;28;20129;-68
2022/05/21 06:12:29;;;;;;;22.13;4.25;;;;;;;20.67;53.59;101964.38;4972695;28;20495;-67
2022/05/21 06:14:54;;;;;;;22.83;4.72;;;;;;;19.83;55.60;101957.97;4977421;28;20042;-67
2022/05/21 06:17:20;;;;;;;16.98;4.35;;;;;;;19.68;56.10;101952.41;4984216;28;20033;-69
2022/05/21 06:19:45;;;;;;;20.48;3.80;;;;;;;19.79;55.72;101950.59;4980967;28;20479;-66
2022/05/21 06:22:11;;;;;;;18.35;4.03;;;;;;;19.67;56.49;101975.31;4980678;28;20046;-66
2022/05/21 06:24:37;;;;;;;16.27;3.40;;;;;;;20.22;54.92;101960.53;4981569;28;20406;-67
2022/05/21 06:27:03;;;;;;;24.30;5.47;;;;;;;20.34;54.08;101988.47;4983380;28;20031;-67
2022/05/21 06:29:29;;;;;;;28.55;3.40;;;;;;;20.27;54.40;101966.00;4980466;28;20039;-67
2022/05/21 06:31:54;;;;;;;20.27;3.60;;;;;;;19.69;56.10;101975.03;4978715;28;20074;-68
2022/05/21 06:34:20;;;;;;;20.17;3.55;;;;;;;20.69;52.75;101973.13;4981091;28;20085;-66
2022/05/21 06:36:45;;;;;;;22.20;3.47;;;;;;;20.40;53.66;101982.75;4979943;28;20050;-67
2022/05/21 06:39:11;;;;;;;21.90;5.30;;;;;;;20.56;52.89;101972.78;4979077;28;20427;-67
2022/05/21 06:41:37;;;;;;;16.77;4.45;;;;;;;20.40;53.53;101977.28;4983410;28;20035;-66
2022/05/21 06:44:03;;;;;;;14.93;3.28;;;;;;;20.22;53.66;101985.09;4979372;28;20026;-69
2022/05/21 06:46:28;;;;;;;11.50;2.97;;;;;;;20.06;53.47;101982.22;4981182;28;20493;-66
2022/05/21 06:48:53;;;;;;;14.25;3.70;;;;;;;20.31;54.05;101987.06;4990492;28;20045;-67
2022/05/21 06:51:19;;;;;;;13.98;3.40;;;;;;;19.84;54.54;101995.09;4990524;28;20046;-67
2022/05/21 06:53:45;;;;;;;11.55;3.38;;;;;;;19.69;54.71;101994.97;4989637;28;20506;-68
2022/05/21 06:56:13;;;;;;;20.27;4.13;;;;;;;20.86;51.79;101989.31;4989642;28;20100;-67
2022/05/21 06:58:39;;;;;;;17.45;3.70;;;;;;;19.96;53.30;102001.22;4988478;28;20035;-69
2022/05/21 07:01:05;;;;;;;24.92;3.47;;;;;;;19.88;53.82;101998.13;4983533;28;20431;-67
2022/05/21 07:03:31;;;;;;;15.15;3.28;;;;;;;20.31;52.89;101997.16;4988548;28;20038;-68
2022/05/21 07:08:41;;;;;;;21.58;4.32;;;;;;;20.75;51.96;102004.88;4990950;28;20499;-68
2022/05/21 07:11:06;;;;;;;17.80;3.97;;;;;;;20.73;51.67;102011.66;4990644;28;20046;-68
2022/05/21 07:13:32;;;;;;;15.98;3.97;;;;;;;20.82;52.44;102007.34;4991259;28;20130;-69
2022/05/21 07:15:58;;;;;;;11.73;3.22;;;;;;;21.15;51.23;102006.19;4993437;28;20065;-68
2022/05/21 07:18:27;;;;;;;11.38;2.63;;;;;;;19.64;53.34;102019.44;4994012;28;20034;-69
2022/05/21 07:20:53;;;;;;;17.48;3.03;;;;;;;20.89;51.50;102011.47;5009344;28;20457;-70
2022/05/21 07:23:18;;;;;;;19.67;3.97;;;;;;;21.34;50.75;102008.19;4993761;28;20035;-69
2022/05/21 07:25:44;;;;;;;19.23;3.10;;;;;;;21.08;50.19;102006.41;4993295;28;20085;-73
2022/05/21 07:28:10;;;;;;;16.10;3.70;;;;;;;21.22;50.67;102018.50;4994259;28;20512;-75
2022/05/21 07:30:37;;;;;;;13.05;3.13;;;;;;;21.23;50.26;102017.41;4993981;28;20046;-73
2022/05/21 07:33:04;;;;;;;8.20;2.10;;;;;;;20.70;51.36;102023.94;4994193;28;20405;-74
2022/05/21 07:35:29;;;;;;;13.93;2.85;;;;;;;21.43;49.76;102022.97;4994435;28;20035;-74
2022/05/21 07:37:55;;;;;;;17.05;3.40;;;;;;;21.04;49.24;102026.34;4994295;28;20029;-72
2022/05/21 07:40:24;;;;;;;12.63;2.85;;;;;;;21.12;49.72;102037.59;4994276;28;20122;-74
2022/05/21 07:42:50;;;;;;;12.18;3.20;;;;;;;21.68;48.81;102028.50;4994101;28;20039;-72
2022/05/21 07:45:17;;;;;;;16.00;2.50;;;;;;;21.27;48.70;102032.19;4994206;28;20102;-74
2022/05/21 07:47:43;;;;;;;16.60;3.88;;;;;;;21.38;49.43;102033.91;4993877;28;20031;-74
2022/05/21 07:50:09;;;;;;;14.13;2.60;;;;;;;21.31;47.90;102048.88;4990306;28;20026;-75
2022/05/21 07:52:35;;;;;;;17.50;2.90;;;;;;;21.56;47.89;102046.28;4989251;28;20065;-74
2022/05/21 07:55:00;;;;;;;6.18;2.40;;;;;;;21.27;48.91;102054.06;4993141;28;20432;-74
2022/05/21 07:57:26;;;;;;;13.52;2.90;;;;;;;21.65;48.52;102050.13;4993227;28;20125;-75
2022/05/21 07:59:51;;;;;;;9.18;2.38;;;;;;;21.58;48.61;102053.09;4993099;28;20030;-73
2022/05/21 08:02:19;;;;;;;11.40;2.50;;;;;;;21.24;48.49;102056.53;4992891;28;20037;-71
2022/05/21 08:04:46;;;;;;;8.82;2.60;;;;;;;22.41;46.46;102054.63;4991840;28;20038;-73
2022/05/21 08:07:11;;;;;;;14.10;2.22;;;;;;;22.38;45.88;102057.09;4999653;28;20042;-72
2022/05/21 08:09:37;;;;;;;11.07;2.88;;;;;;;20.90;49.17;102058.75;4981774;28;20114;-73
2022/05/21 08:12:04;;;;;;;14.85;3.20;;;;;;;21.99;47.57;102042.28;4979052;28;20034;-73
2022/05/21 08:14:29;;;;;;;16.00;3.00;;;;;;;22.23;46.33;102048.88;4978982;28;20383;-75
2022/05/21 08:16:55;;;;;;;19.45;2.53;;;;;;;21.20;48.08;102056.25;4989599;28;20026;-73
2022/05/21 08:19:20;;;;;;;14.23;2.70;;;;;;;22.18;46.55;102057.91;4989789;28;20043;-73
2022/05/21 08:21:46;;;;;;;10.65;2.35;;;;;;;23.07;45.81;102055.38;4992633;28;20041;-74
2022/05/21 08:27:02;;;;;;;7.35;2.13;;;;;;;21.65;45.69;102064.63;4993150;28;20049;-73
2022/05/21 08:29:33;;;;;;;13.43;2.45;;;;;;;22.17;45.36;102060.94;4993193;28;20030;-72
2022/05/21 08:32:00;;;;;;;12.88;2.22;;;;;;;21.84;46.22;102062.22;4992645;28;20030;-74
2022/05/21 08:34:26;;;;;;;12.82;2.80;;;;;;;22.11;46.68;102072.97;4988695;28;20026;-73
2022/05/21 08:36:53;;;;;;;19.90;2.92;;;;;;;22.02;47.38;102069.94;4990804;28;20056;-74
2022/05/21 08:39:20;;;;;;;11.73;2.13;;;;;;;21.93;45.79;102070.75;4990341;28;20054;-72
2022/05/21 08:41:49;;;;;;;12.43;1.58;;;;;;;21.87;46.00;102075.38;4991801;28;20040;-73
2022/05/21 08:44:45;;;;;;;7.68;1.50;;;;;;;22.73;44.35;102067.22;4991582;28;20031;-74
2022/05/21 08:47:20;;;;;;;12.77;2.22;;;;;;;22.64;44.25;102083.44;4930324;29;20055;-72
2022/05/21 08:50:02;;;;;;;13.93;2.25;;;;;;;22.21;45.40;102083.94;4931043;29;20039;-72
2022/05/21 08:52:37;;;;;;;10.32;2.25;;;;;;;22.45;44.84;102085.03;4930040;29;20557;-72
2022/05/21 08:55:06;;;;;;;4.55;1.30;;;;;;;23.14;42.63;102090.72;4928854;29;20103;-73
2022/05/21 08:57:48;;;;;;;14.95;2.40;;;;;;;23.32;42.47;102082.75;4929131;29;20127;-74
2022/05/21 09:00:49;;;;;;;9.45;1.98;;;;;;;21.82;44.80;102103.56;4914791;29;20047;-75
2022/05/21 09:03:18;;;;;;;7.55;1.80;;;;;;;22.06;44.37;102094.84;4930800;29;20123;-74
2022/05/21 09:05:58;;;;;;;9.65;2.40;;;;;;;22.45;44.23;102090.50;4927756;29;20047;-73
2022/05/21 09:08:39;;;;;;;5.53;2.55;;;;;;;22.81;44.31;102086.69;4896891;29;20036;-75
2022/05/21 09:11:21;;;;;;;13.00;2.45;;;;;;;22.03;45.73;102096.25;4927664;29;20036;-72
2022/05/21 09:14:11;;;;;;;7.47;1.73;;;;;;;22.40;44.63;102087.78;4925073;29;20028;-75
2022/05/21 09:16:54;;;;;;;13.27;2.65;;;;;;;22.12;44.99;102101.97;4925330;29;20048;-75
2022/05/21 09:19:26;;;;;;;17.83;2.58;;;;;;;22.49;44.01;102084.22;4939100;29;20064;-75
2022/05/21 09:22:07;;;;;;;9.85;2.03;;;;;;;23.12;43.62;102101.16;4928421;29;20100;-74
2022/05/21 09:24:40;;;;;;;13.82;2.70;;;;;;;22.66;44.50;102086.72;4955964;28;20050;-73
2022/05/21 09:27:24;;;;;;;9.02;1.85;;;;;;;23.24;42.18;102086.03;4972434;28;20418;-73
2022/05/21 09:30:14;;;;;;;7.35;2.15;;;;;;;22.78;42.63;102089.16;4986611;28;20038;-75
2022/05/21 09:32:42;;;;;;;4.80;1.30;;;;;;;22.88;42.30;102086.41;4969474;28;20542;-74
2022/05/21 09:35:13;;;;;;;9.43;2.00;;;;;;;23.16;41.42;102094.00;4973336;28;20034;-75
2022/05/21 09:37:40;;;;;;;11.70;1.90;;;;;;;22.75;43.08;102078.75;4984145;28;20070;-70
2022/05/21 09:40:24;;;;;;;10.73;2.13;;;;;;;22.94;43.31;102093.53;4979325;28;20637;-65
2022/05/21 09:45:36;;;;;;;8.25;2.13;;;;;;;23.44;42.48;102087.91;4989681;28;20562;-64
2022/05/21 09:48:05;;;;;;;9.93;1.73;;;;;;;23.13;42.15;102092.66;4990161;28;20042;-64
2022/05/21 09:50:42;;;;;;;8.07;1.75;;;;;;;23.62;41.62;102092.78;4987943;28;20057;-64
2022/05/21 09:53:28;;;;;;;9.45;2.35;;;;;;;24.00;39.69;102100.25;4989251;28;20380;-64
2022/05/21 09:56:17;;;;;;;17.13;1.92;;;;;;;24.04;40.19;102092.28;4990296;28;20397;-67
2022/05/21 09:58:44;;;;;;;9.65;2.40;;;;;;;23.78;39.76;102097.09;4990317;28;20049;-65
2022/05/21 10:01:57;;;;;;;11.25;3.53;;;;;;;24.70;39.20;102100.84;4981278;28;20046;-68
2022/05/21 10:04:48;;;;;;;6.40;1.25;;;;;;;23.81;37.28;102099.28;4981455;28;20042;-70
2022/05/21 10:13:14;;;;;;;8.90;1.20;;;;;;;23.29;39.49;102104.41;4981146;28;20050;-68
2022/05/21 10:15:49;;;;;;;6.15;1.42;;;;;;;23.37;39.59;102103.88;4982800;28;20053;-67
2022/05/21 10:18:36;;;;;;;7.32;1.70;;;;;;;22.78;40.08;102111.09;4990758;28;20536;-67
2022/05/21 10:21:20;;;;;;;10.63;1.67;;;;;;;23.39;39.75;102118.94;4986173;28;20053;-68
2022/05/21 10:23:55;;;;;;;7.38;1.52;;;;;;;23.71;38.61;102125.94;4991031;28;20034;-67
2022/05/21 10:26:42;;;;;;;14.63;1.50;;;;;;;23.90;37.82;102116.78;4990908;28;20034;-70
2022/05/21 10:29:33;;;;;;;6.15;1.80;;;;;;;23.13;39.81;102124.75;4990932;28;20034;-68
2022/05/21 10:32:08;;;;;;;5.93;1.73;;;;;;;24.63;37.53;102119.63;4990655;28;20034;-67
2022/05/21 10:34:51;;;;;;;6.07;1.73;;;;;;;24.58;37.42;102120.47;4991333;28;20042;-69
2022/05/21 10:37:38;;;;;;;10.20;2.33;;;;;;;23.88;38.94;102115.44;4990584;28;20092;-66
2022/05/21 10:40:44;;;;;;;10.20;3.05;;;;;;;24.29;38.91;102125.91;4990633;28;20395;-67
2022/05/21 10:43:19;;;;;;;5.90;1.48;;;;;;;23.54;39.82;102127.13;4985801;28;20233;-70
2022/05/21 10:46:08;;;;;;;10.93;1.75;;;;;;;24.32;37.29;102116.28;4979004;28;20133;-66
2022/05/21 10:48:53;;;;;;;7.35;1.67;;;;;;;24.24;37.89;102117.72;4971952;28;20034;-68
2022/05/21 10:51:33;;;;;;;5.68;1.63;;;;;;;24.61;37.60;102108.91;4984403;28;20557;-66
2022/05/21 10:54:25;;;;;;;7.82;1.30;;;;;;;23.79;38.56;102111.63;4986050;28;20047;-69
2022/05/21 10:57:17;;;;;;;15.30;1.98;;;;;;;24.55;37.26;102118.28;4986503;28;20045;-68
2022/05/21 11:00:13;;;;;;;7.85;1.58;;;;;;;24.31;37.83;102122.91;4978440;28;20050;-66
2022/05/21 11:03:09;;;;;;;8.70;1.50;;;;;;;24.18;37.21;102126.25;4977043;28;20042;-66
2022/05/21 11:06:13;;;;;;;8.35;1.63;;;;;;;25.57;35.02;102122.53;4979048;28;20094;-67
2022/05/21 11:09:04;;;;;;;6.35;1.27;;;;;;;25.00;35.03;102128.91;4981066;28;20102;-66
2022/05/21 11:11:51;;;;;;;7.10;1.63;;;;;;;24.42;37.05;102140.94;4982131;28;20070;-70
2022/05/21 11:14:35;;;;;;;7.45;1.85;;;;;;;24.54;37.51;102135.91;4978725;28;20449;-67
2022/05/21 11:17:04;;;;;;;7.63;2.00;;;;;;;23.96;38.66;102132.13;4986878;28;20141;-68
2022/05/21 11:19:50;;;;;;;10.35;1.90;;;;;;;23.91;38.17;102143.16;4939506;28;20487;-67
2022/05/21 11:22:24;;;;;;;7.85;1.65;;;;;;;23.66;38.05;102137.78;4949798;28;20043;-67
2022/05/21 11:25:21;;;;;;;6.78;1.92;;;;;;;23.65;37.53;102140.78;4943352;28;20401;-68
2022/05/21 11:28:17;;;;;;;8.77;1.85;;;;;;;25.24;35.79;102135.28;4948493;28;20046;-65
2022/05/21 11:30:42;;;;;;;7.28;1.92;;;;;;;25.91;34.50;102136.13;4947828;28;20093;-67
2022/05/21 11:38:51;;;;;;;11.38;1.73;;;;;;;24.58;36.79;102136.97;4948543;28;20157;-64
2022/05/21 11:41:25;;;;;;;6.05;1.40;;;;;;;25.86;34.68;102153.56;4947725;28;20132;-66
2022/05/21 11:47:13;;;;;;;7.25;1.63;;;;;;;25.14;33.29;102151.88;4947863;29;20098;-66
2022/05/21 11:49:44;;;;;;;3.60;0.82;;;;;;;24.97;34.25;102154.25;4985704;28;20045;-67
2022/05/21 11:52:27;;;;;;;3.10;0.90;;;;;;;24.37;33.80;102150.03;4989793;28;20057;-66
2022/05/21 11:54:53;;;;;;;4.13;0.93;;;;;;;25.32;32.33;102155.03;4989687;28;20518;-68
2022/05/21 11:57:38;;;;;;;5.38;0.88;;;;;;;26.02;32.33;102145.91;4989445;28;20117;-67
2022/05/21 12:00:26;;;;;;;5.47;1.10;;;;;;;25.26;34.36;102148.72;4988502;28;20046;-67
2022/05/21 12:02:54;;;;;;;5.55;1.23;;;;;;;25.92;33.65;102157.91;4948293;28;20384;-67
2022/05/21 12:05:31;;;;;;;7.10;1.52;;;;;;;26.00;33.45;102150.91;4947987;28;20035;-67
2022/05/21 12:08:08;;;;;;;6.57;1.05;;;;;;;24.69;33.75;102156.94;4947522;29;20043;-68